Triangle Lake, Oregon
Current Conditions -  °F | °C
As of 12:39 PM on Monday 22 Dec 2014 (Local Time) from KEUG Reporting Station
Overcast Overcast  
Wind Chill: 55°   Ceiling: 2200
Heat Index: 55°   Visibility: 10mi
Dew Point: 50°   Wind: 5mph
Humidity: 83%   Direction: 360°N
Pressure: 30.36"   Gusts: NA
Location:  44.1962°N, 123.553°W
Report Text: KEUG 222039Z 36004KT 10SM R16R/5000VP6000FT FEW016 OVC022 13/10 A3036 RMK AO2 T01280100
Loading
Personal Weather Stations






























Interactive Weather Map New forecast layout! Learn more

10-Day Weather Forecast

Advertisements
Track Severe Weather on mobile